Lamadrid, Argentina
Current Conditions -  °F | °C
As of 11:00 AM on Saturday 25 Oct 2014 (Local Time) from SANT Reporting Station
Clear Clear  
Wind Chill: 91°   Ceiling: Unl
Heat Index: 91°   Visibility: 5mi
Dew Point: 61°   Wind: 3mph
Humidity: 36%   Direction: 230°SW
Pressure: 29.91"   Gusts: NA
Location:  27.63°S, 65.25°W
Report Text: SANT 251400Z 23003KT 8000 NSC 33/16 Q1013
Loading
Personal Weather Stations






























Interactive Weather Map New forecast layout! Learn more

10-Day Weather Forecast

Advertisements
Track Severe Weather on mobile